Time;durP1;ratioP1;P1;durP2;ratioP2;P2;SDS_P1;SDS_P2;PMS_P1;PMS_P2;Temp;Humidity;BMP_temperature;BMP_pressure;BME280_temperature;BME280_humidity;BME280_pressure;Samples;Min_cycle;Max_cycle;Signal;HPM_P1;HPM_P2
2023/08/02 00:04:06;;;;;;;18.58;14.38;;;;;;;23.69;75.94;99587.44;10330520;28;20607;-76
2023/08/02 00:09:07;;;;;;;17.98;14.10;;;;;;;23.68;76.84;99614.78;10330231;28;20030;-76
2023/08/02 00:14:08;;;;;;;21.63;14.80;;;;;;;23.57;77.49;99599.59;10331806;28;20066;-76
2023/08/02 00:19:09;;;;;;;18.42;14.82;;;;;;;23.08;77.33;99549.44;10330356;28;20039;-76
2023/08/02 00:24:10;;;;;;;19.92;14.80;;;;;;;23.31;78.43;99615.06;10330063;28;20052;-76
2023/08/02 00:29:10;;;;;;;17.52;15.15;;;;;;;22.92;79.21;99567.56;10336080;28;20046;-76
2023/08/02 00:34:11;;;;;;;19.40;16.40;;;;;;;23.00;79.62;99579.78;10338037;28;20050;-76
2023/08/02 00:39:12;;;;;;;24.45;16.73;;;;;;;22.79;80.11;99568.91;10338306;28;20039;-76
2023/08/02 00:44:12;;;;;;;20.33;18.10;;;;;;;22.39;80.33;99509.22;10337630;28;20038;-76
2023/08/02 00:49:13;;;;;;;24.73;18.98;;;;;;;22.94;81.05;99602.47;10336937;28;20042;-76
2023/08/02 00:54:14;;;;;;;24.75;19.10;;;;;;;22.33;81.54;99506.50;10336875;28;20042;-76
2023/08/02 00:59:15;;;;;;;23.67;19.23;;;;;;;22.97;82.19;99618.22;10337600;28;20173;-76
2023/08/02 01:04:16;;;;;;;24.70;18.70;;;;;;;22.43;82.35;99549.00;10336411;28;20197;-76
2023/08/02 01:09:27;;;;;;;23.52;18.35;;;;;;;22.73;86.04;99613.25;10337226;28;20185;-76
2023/08/02 01:14:31;;;;;;;27.02;19.95;;;;;;;22.58;84.54;99605.06;10337208;28;20411;-78
2023/08/02 01:19:32;;;;;;;30.17;18.67;;;;;;;22.59;84.22;99622.97;10337092;28;20433;-76
2023/08/02 01:24:36;;;;;;;27.20;19.73;;;;;;;22.65;86.33;99631.94;10318942;28;20049;-76
2023/08/02 01:29:45;;;;;;;21.17;18.83;;;;;;;22.25;87.36;99574.63;10336665;28;20045;-76
2023/08/02 01:34:46;;;;;;;81.90;20.23;;;;;;;22.27;85.31;99582.50;10334914;28;20085;-76
2023/08/02 01:39:47;;;;;;;56.25;20.73;;;;;;;22.57;85.76;99644.06;10334707;28;20406;-76
2023/08/02 01:44:47;;;;;;;98.95;22.02;;;;;;;22.47;86.06;99644.03;10316419;28;20129;-76
2023/08/02 01:49:48;;;;;;;37.95;19.92;;;;;;;21.98;86.38;99580.16;10335723;28;20057;-76
2023/08/02 01:54:49;;;;;;;24.58;19.35;;;;;;;22.45;86.98;99649.69;10334920;28;20482;-76
2023/08/02 01:59:50;;;;;;;41.35;21.08;;;;;;;21.59;87.69;99530.97;10316585;28;20038;-76
2023/08/02 02:04:51;;;;;;;45.05;20.27;;;;;;;22.30;88.13;99649.63;10334198;28;20068;-76
2023/08/02 02:09:51;;;;;;;24.02;18.67;;;;;;;22.41;88.73;99654.00;10334288;28;20057;-76
2023/08/02 02:14:52;;;;;;;41.50;19.38;;;;;;;21.92;88.60;99569.56;10334318;28;20046;-76
2023/08/02 02:19:53;;;;;;;34.95;18.63;;;;;;;22.03;88.42;99565.84;10334238;28;20034;-76
2023/08/02 02:24:54;;;;;;;27.92;19.33;;;;;;;21.99;88.51;99543.13;10333848;28;20035;-76
2023/08/02 02:29:54;;;;;;;40.40;20.42;;;;;;;22.27;88.45;99577.91;10333925;28;20050;-77
2023/08/02 02:34:55;;;;;;;33.22;22.17;;;;;;;22.75;88.44;99632.75;10333032;28;20046;-76
2023/08/02 02:39:56;;;;;;;31.98;23.70;;;;;;;22.59;88.04;99592.38;10333256;28;20062;-76
2023/08/02 02:44:57;;;;;;;167.98;29.60;;;;;;;23.09;87.68;99616.09;10332719;28;20042;-76
2023/08/02 02:49:57;;;;;;;30.02;22.45;;;;;;;23.08;85.47;99540.50;10333794;28;20046;-77
2023/08/02 02:54:58;;;;;;;30.27;22.00;;;;;;;23.94;83.37;99610.16;10333357;28;20495;-76
2023/08/02 02:59:59;;;;;;;25.65;20.73;;;;;;;24.37;83.10;99630.38;10332138;28;20050;-77
2023/08/02 03:05:00;;;;;;;121.63;26.98;;;;;;;23.84;82.82;99562.19;10332047;28;20396;-77
2023/08/02 03:10:00;;;;;;;43.67;20.23;;;;;;;24.42;81.93;99610.59;10331726;28;20064;-77
2023/08/02 03:15:01;;;;;;;44.20;20.00;;;;;;;25.31;79.51;99629.72;10332199;28;20046;-76
2023/08/02 03:20:02;;;;;;;27.52;17.35;;;;;;;26.52;75.84;99638.94;10331398;28;20042;-77
2023/08/02 03:25:04;;;;;;;21.27;16.55;;;;;;;26.78;72.66;99534.00;10331385;28;20400;-77
2023/08/02 03:30:05;;;;;;;34.38;14.90;;;;;;;28.33;68.95;99585.63;10331516;28;20046;-81
2023/08/02 03:35:06;;;;;;;23.88;13.75;;;;;;;29.42;65.19;99607.56;10332453;28;20038;-78
2023/08/02 03:40:08;;;;;;;17.50;12.30;;;;;;;30.19;62.71;99630.25;10330839;28;20042;-78
2023/08/02 03:45:09;;;;;;;22.63;12.23;;;;;;;30.98;59.97;99634.03;10330242;28;20047;-77
2023/08/02 03:50:10;;;;;;;25.23;11.80;;;;;;;31.48;57.67;99619.84;10329283;28;20097;-77
2023/08/02 03:55:10;;;;;;;13.98;10.13;;;;;;;31.95;56.11;99634.47;10329510;28;20073;-78
2023/08/02 04:00:11;;;;;;;17.35;9.15;;;;;;;31.94;55.21;99607.31;10328141;28;20046;-86
2023/08/02 04:05:12;;;;;;;16.13;9.00;;;;;;;31.49;55.90;99553.63;10337596;28;20042;-86
2023/08/02 04:10:13;;;;;;;13.63;7.97;;;;;;;32.23;53.41;99582.63;10334268;28;20390;-83
2023/08/02 04:15:14;;;;;;;19.00;7.32;;;;;;;32.93;53.31;99640.75;10335750;28;20483;-82
2023/08/02 04:20:14;;;;;;;16.15;11.02;;;;;;;32.92;52.64;99592.38;10335163;28;20045;-82
2023/08/02 04:25:16;;;;;;;18.65;14.40;;;;;;;33.26;51.83;99636.50;10335462;28;20475;-82
2023/08/02 04:30:17;;;;;;;13.57;8.43;;;;;;;33.18;52.08;99570.19;10342137;28;20046;-82
2023/08/02 04:35:18;;;;;;;15.02;6.63;;;;;;;33.54;51.21;99609.22;10333224;28;20465;-78
2023/08/02 04:40:18;;;;;;;12.43;6.35;;;;;;;33.30;50.82;99538.34;10338025;28;20050;-77
2023/08/02 04:45:19;;;;;;;12.57;7.10;;;;;;;33.74;50.31;99608.34;10336452;28;20132;-77
2023/08/02 04:50:21;;;;;;;9.13;5.60;;;;;;;33.51;50.93;99621.72;10336098;28;20458;-76
2023/08/02 04:55:22;;;;;;;6.63;4.97;;;;;;;33.16;50.68;99602.72;10336918;28;20049;-77
2023/08/02 05:00:22;;;;;;;11.10;5.60;;;;;;;32.48;51.12;99538.84;10370333;28;20404;-77
2023/08/02 05:05:24;;;;;;;12.70;6.82;;;;;;;32.64;51.22;99594.88;10344483;28;20049;-77
2023/08/02 05:10:25;;;;;;;8.18;5.43;;;;;;;32.56;51.17;99609.47;10335219;28;20058;-77
2023/08/02 05:15:26;;;;;;;20.75;10.30;;;;;;;32.09;52.81;99600.47;10335043;28;20064;-77
2023/08/02 05:20:32;;;;;;;13.38;7.05;;;;;;;31.24;53.97;99555.28;10335902;28;20097;-77
2023/08/02 05:25:34;;;;;;;25.25;10.48;;;;;;;31.30;55.68;99588.84;10336156;28;20039;-76
2023/08/02 05:30:36;;;;;;;;;;;;;;;31.73;53.91;99594.25;10335987;28;20550;-76
2023/08/02 05:35:37;;;;;;;8.60;5.80;;;;;;;31.08;54.95;99543.19;10319135;28;19960;-76
2023/08/02 05:40:38;;;;;;;12.68;6.40;;;;;;;30.97;55.27;99539.97;10336144;28;20069;-76
2023/08/02 05:45:39;;;;;;;13.38;5.93;;;;;;;30.83;55.43;99533.84;10335829;28;20057;-76
2023/08/02 05:50:39;;;;;;;18.33;9.57;;;;;;;31.20;55.06;99583.66;10334793;28;20045;-76
2023/08/02 05:55:40;;;;;;;10.60;8.18;;;;;;;30.31;55.67;99427.72;10334445;28;20454;-76
2023/08/02 06:00:41;;;;;;;9.40;6.28;;;;;;;31.37;55.44;99572.72;10334872;28;20047;-76
2023/08/02 06:05:42;;;;;;;10.80;5.93;;;;;;;31.50;55.48;99557.19;10334160;28;20046;-77
2023/08/02 06:10:42;;;;;;;13.80;6.55;;;;;;;31.59;54.40;99555.22;10334471;28;20065;-76
2023/08/02 06:15:43;;;;;;;11.05;7.15;;;;;;;31.55;54.39;99548.78;10316287;28;20042;-76
2023/08/02 06:20:44;;;;;;;25.33;13.75;;;;;;;31.55;53.63;99522.13;10334558;28;20133;-76
2023/08/02 06:25:46;;;;;;;21.20;6.65;;;;;;;31.66;52.76;99511.59;10333041;28;20124;-76
2023/08/02 06:30:46;;;;;;;21.15;10.95;;;;;;;31.66;52.35;99492.38;10334227;28;20046;-76
2023/08/02 06:35:47;;;;;;;14.40;8.10;;;;;;;31.65;52.33;99473.47;10334631;28;20445;-76
2023/08/02 07:28:27;;;;;;;7.65;3.97;;;;;;;33.26;47.04;99518.94;10482800;28;20953;-75
2023/08/02 07:33:28;;;;;;;7.85;3.80;;;;;;;33.18;46.40;99490.38;10482933;28;20521;-73
2023/08/02 07:38:29;;;;;;;7.15;3.38;;;;;;;33.77;46.68;99551.75;10482985;28;20051;-74
2023/08/02 07:43:30;;;;;;;10.40;3.30;;;;;;;33.99;43.22;99550.53;10483126;28;20384;-72
2023/08/02 07:48:31;;;;;;;21.08;3.55;;;;;;;34.22;44.20;99556.38;10482099;28;20049;-72
2023/08/02 07:53:31;;;;;;;8.93;3.47;;;;;;;34.31;43.75;99533.09;10482394;28;20121;-73
2023/08/02 07:58:32;;;;;;;46.88;5.28;;;;;;;34.42;44.33;99510.53;10481755;28;20041;-72
2023/08/02 08:03:34;;;;;;;7.82;3.45;;;;;;;34.39;40.51;99489.97;10481790;28;20041;-72
2023/08/02 08:08:34;;;;;;;7.53;3.00;;;;;;;34.72;39.06;99503.56;10481879;28;20040;-72
2023/08/02 08:13:35;;;;;;;14.48;3.55;;;;;;;35.09;38.83;99535.75;10481032;28;20041;-71
2023/08/02 08:18:36;;;;;;;7.13;3.17;;;;;;;34.99;38.42;99528.75;10481502;28;20037;-73
2023/08/02 08:23:37;;;;;;;6.90;3.05;;;;;;;35.04;37.27;99491.84;10481344;28;20498;-74
2023/08/02 08:28:38;;;;;;;12.30;3.60;;;;;;;35.01;37.64;99468.50;10457713;28;20051;-72
2023/08/02 08:33:38;;;;;;;8.90;3.40;;;;;;;35.21;37.36;99488.75;10453452;28;20037;-73
2023/08/02 08:38:39;;;;;;;13.18;3.00;;;;;;;35.43;36.42;99513.03;10452814;28;20504;-72
2023/08/02 08:43:40;;;;;;;10.20;3.17;;;;;;;35.45;36.73;99498.88;10453084;28;20407;-73
2023/08/02 08:48:42;;;;;;;6.70;3.25;;;;;;;35.57;37.18;99504.34;10452199;28;20049;-72
2023/08/02 08:53:44;;;;;;;15.07;3.50;;;;;;;35.73;36.89;99485.00;10450987;28;20082;-72
2023/08/02 08:58:45;;;;;;;10.48;3.17;;;;;;;35.49;36.35;99429.91;10452591;28;20037;-73
2023/08/02 09:03:46;;;;;;;12.70;3.45;;;;;;;35.59;36.14;99457.00;10452479;28;20487;-74
2023/08/02 09:08:49;;;;;;;8.57;3.17;;;;;;;35.53;35.80;99437.13;10451962;28;20037;-72
2023/08/02 09:14:15;;;;;;;10.73;3.17;;;;;;;35.88;35.25;99469.56;10451593;28;20041;-73
2023/08/02 09:19:27;;;;;;;4.50;3.20;;;;;;;36.04;33.97;99486.13;10451805;28;20065;-73
2023/08/02 09:24:36;;;;;;;15.68;3.25;;;;;;;35.80;35.81;99457.53;10430684;28;20091;-73
2023/08/02 09:29:48;;;;;;;8.63;3.20;;;;;;;36.20;35.53;99472.25;10408036;28;20072;-73
2023/08/02 09:34:52;;;;;;;8.05;2.70;;;;;;;35.72;35.32;99375.66;10406217;28;20046;-75
2023/08/02 09:39:53;;;;;;;18.23;3.33;;;;;;;36.60;34.05;99449.84;10408512;28;20042;-74
2023/08/02 09:45:01;;;;;;;18.00;2.97;;;;;;;36.52;31.96;99445.31;10409359;28;20056;-73
2023/08/02 09:50:06;;;;;;;15.02;3.03;;;;;;;36.57;32.24;99450.56;10409724;28;20052;-76
2023/08/02 09:55:08;;;;;;;6.72;2.65;;;;;;;36.26;32.10;99419.09;10409602;28;20038;-75
2023/08/02 10:00:10;;;;;;;8.70;3.45;;;;;;;36.37;32.14;99418.50;10408883;28;20044;-75
2023/08/02 10:05:13;;;;;;;10.15;3.08;;;;;;;36.54;31.84;99388.47;10408376;28;20061;-74
2023/08/02 10:10:24;;;;;;;8.25;2.80;;;;;;;36.32;30.97;99337.44;10408662;28;20044;-75
2023/08/02 10:15:26;;;;;;;9.68;2.67;;;;;;;36.60;31.89;99383.44;10408218;28;20061;-75
2023/08/02 10:20:29;;;;;;;7.70;2.70;;;;;;;36.61;31.00;99378.69;10409066;28;20072;-77
2023/08/02 10:25:35;;;;;;;6.25;2.38;;;;;;;36.68;29.56;99412.84;10408687;28;20144;-75
2023/08/02 10:30:36;;;;;;;10.25;2.92;;;;;;;36.88;30.65;99446.00;10408428;28;20042;-75
2023/08/02 10:36:06;;;;;;;6.70;2.43;;;;;;;36.81;31.16;99456.97;10408876;28;20049;-75
2023/08/02 10:41:13;;;;;;;14.83;2.43;;;;;;;36.32;32.96;99453.59;10407501;28;20412;-75
2023/08/02 10:46:16;;;;;;;7.85;2.72;;;;;;;35.93;32.14;99410.41;10407586;28;20076;-75
2023/08/02 10:51:31;;;;;;;7.97;2.55;;;;;;;36.16;32.25;99452.03;10407003;28;20041;-75
2023/08/02 10:56:32;;;;;;;7.40;2.72;;;;;;;35.50;32.22;99393.66;10408214;28;20436;-75
2023/08/02 11:01:32;;;;;;;50.63;4.00;;;;;;;35.74;33.65;99461.72;10407237;28;20033;-76
2023/08/02 11:06:34;;;;;;;8.13;2.95;;;;;;;35.73;33.97;99462.91;10406937;28;20085;-76
2023/08/02 11:11:36;;;;;;;7.55;2.85;;;;;;;35.67;34.33;99475.38;10406731;28;20046;-75
2023/08/02 11:16:40;;;;;;;11.20;2.60;;;;;;;34.99;33.92;99372.25;10406627;28;20087;-76
2023/08/02 11:21:52;;;;;;;7.68;2.38;;;;;;;35.55;34.44;99459.69;10406714;28;20041;-76
2023/08/02 11:57:21;;;;;;;8.23;3.33;;;;;;;35.58;35.06;99483.03;10457625;28;20400;-75
2023/08/02 12:02:31;;;;;;;15.05;2.70;;;;;;;35.56;36.10;99486.16;10441465;28;20049;-75
2023/08/02 12:07:34;;;;;;;13.90;3.05;;;;;;;35.51;35.94;99491.94;10441278;28;20033;-75
2023/08/02 12:12:35;;;;;;;9.82;2.88;;;;;;;35.17;36.79;99444.50;10440536;28;20045;-77
2023/08/02 12:17:36;;;;;;;20.40;3.20;;;;;;;35.57;37.60;99500.75;10438202;28;20053;-78
2023/08/02 12:22:50;;;;;;;9.43;2.78;;;;;;;35.64;37.41;99476.88;10441159;28;20037;-76
2023/08/02 12:28:07;;;;;;;16.73;2.90;;;;;;;35.83;36.61;99476.16;10439855;28;20094;-76
2023/08/02 12:33:08;;;;;;;10.75;2.60;;;;;;;35.77;35.14;99480.34;10440607;28;20504;-77
2023/08/02 12:38:08;;;;;;;8.40;2.55;;;;;;;35.55;35.42;99478.25;10438116;28;20156;-77
2023/08/02 12:43:09;;;;;;;11.55;2.90;;;;;;;34.96;36.75;99410.81;10439468;28;20052;-77
2023/08/02 12:48:10;;;;;;;13.40;3.03;;;;;;;35.40;37.29;99458.50;10440117;27;20045;-76
2023/08/02 12:53:11;;;;;;;12.23;2.88;;;;;;;35.22;37.16;99454.50;10435581;28;20400;-76
2023/08/02 12:58:12;;;;;;;11.50;2.45;;;;;;;34.47;37.34;99375.97;10394464;28;20120;-76
2023/08/02 13:03:13;;;;;;;11.45;4.20;;;;;;;34.80;37.09;99452.19;10389566;28;20562;-76
2023/08/02 13:13:19;;;;;;;10.15;3.03;;;;;;;34.47;37.63;99485.50;10482761;27;20465;-76
2023/08/02 13:18:20;;;;;;;12.38;3.75;;;;;;;33.69;38.19;99379.19;10472194;28;20086;-77
2023/08/02 13:23:21;;;;;;;9.45;2.97;;;;;;;34.25;38.73;99493.13;10476625;28;20043;-77
2023/08/02 13:28:21;;;;;;;11.80;3.00;;;;;;;34.01;38.64;99465.53;10472883;28;20036;-77
2023/08/02 13:33:22;;;;;;;8.43;3.30;;;;;;;34.01;39.31;99479.31;10476950;28;20037;-76
2023/08/02 13:38:23;;;;;;;12.00;3.58;;;;;;;33.47;39.84;99433.50;10466129;28;20033;-78
2023/08/02 13:43:24;;;;;;;13.63;3.42;;;;;;;33.59;40.35;99455.56;10468471;28;20041;-77
2023/08/02 13:48:25;;;;;;;12.43;3.40;;;;;;;33.60;40.91;99472.94;10465893;28;20041;-75
2023/08/02 13:53:26;;;;;;;12.45;3.72;;;;;;;33.50;40.99;99460.38;10465380;28;20040;-76
2023/08/02 13:58:27;;;;;;;12.38;3.30;;;;;;;33.45;41.00;99451.56;10471581;28;20041;-78
2023/08/02 14:03:27;;;;;;;15.75;3.90;;;;;;;33.25;41.32;99440.28;10467509;28;20132;-82
2023/08/02 14:08:29;;;;;;;21.65;4.43;;;;;;;33.19;43.03;99461.69;10464568;28;20040;-80
2023/08/02 14:13:29;;;;;;;13.90;4.75;;;;;;;32.63;44.55;99398.00;10467206;28;20041;-77
2023/08/02 14:18:30;;;;;;;20.75;4.88;;;;;;;32.65;45.02;99420.47;10462780;28;20496;-76
2023/08/02 14:23:32;;;;;;;15.63;4.40;;;;;;;32.68;45.21;99466.56;10424732;28;20049;-77
2023/08/02 14:28:33;;;;;;;15.77;4.60;;;;;;;32.65;45.62;99475.47;10418240;28;20037;-78
2023/08/02 14:33:33;;;;;;;22.25;5.10;;;;;;;32.15;45.88;99417.81;10419272;28;20140;-77
2023/08/02 14:38:34;;;;;;;13.10;4.18;;;;;;;32.32;46.27;99461.66;10418932;28;20103;-79
2023/08/02 14:43:35;;;;;;;13.13;5.18;;;;;;;32.37;46.64;99496.34;10418727;28;20037;-78
2023/08/02 14:48:36;;;;;;;14.85;5.90;;;;;;;31.98;46.35;99440.69;10417597;28;20076;-78
2023/08/02 14:53:37;;;;;;;16.10;6.78;;;;;;;32.02;46.84;99464.44;10417391;28;20065;-77
2023/08/02 14:58:37;;;;;;;14.10;5.53;;;;;;;31.71;47.20;99428.22;10418200;28;20052;-79
2023/08/02 15:03:38;;;;;;;10.73;4.30;;;;;;;32.04;47.42;99506.13;10418245;28;20041;-77
2023/08/02 15:08:39;;;;;;;9.20;3.80;;;;;;;31.84;47.36;99498.59;10417043;28;20443;-76
2023/08/02 15:13:40;;;;;;;9.30;3.95;;;;;;;31.44;47.84;99444.03;10416688;28;20091;-77
2023/08/02 15:18:40;;;;;;;12.25;4.72;;;;;;;31.60;47.82;99486.25;10416580;28;20049;-76
2023/08/02 15:23:41;;;;;;;14.40;4.88;;;;;;;31.72;48.60;99520.47;10417257;28;20041;-77
2023/08/02 15:28:42;;;;;;;9.90;3.97;;;;;;;31.15;49.39;99452.97;10416068;28;20062;-77
2023/08/02 15:33:43;;;;;;;13.25;4.32;;;;;;;31.57;49.69;99543.78;10414074;28;20033;-77
2023/08/02 15:38:44;;;;;;;12.90;4.50;;;;;;;31.03;49.85;99485.75;10417380;28;20455;-78
2023/08/02 15:43:45;;;;;;;13.23;4.40;;;;;;;31.34;50.32;99552.22;10416964;28;20052;-78
2023/08/02 15:48:45;;;;;;;8.00;4.60;;;;;;;31.21;51.23;99553.19;10413976;28;20068;-76
2023/08/02 15:53:46;;;;;;;8.90;4.78;;;;;;;31.05;51.82;99552.88;10420174;28;20129;-78
2023/08/02 15:58:47;;;;;;;10.13;5.07;;;;;;;30.83;52.66;99544.81;10428392;28;20049;-78
2023/08/02 16:03:48;;;;;;;6.75;4.28;;;;;;;30.51;53.38;99504.94;10449404;28;20458;-83
2023/08/02 16:08:49;;;;;;;9.18;4.72;;;;;;;29.70;53.66;99400.19;10448925;28;20060;-81
2023/08/02 16:13:51;;;;;;;9.30;4.47;;;;;;;30.46;54.17;99528.63;10443190;28;20045;-82
2023/08/02 16:18:51;;;;;;;12.35;4.80;;;;;;;29.98;53.58;99463.75;10454871;28;20048;-81
2023/08/02 16:23:52;;;;;;;16.50;5.25;;;;;;;30.24;54.38;99507.66;10455154;28;20040;-82
2023/08/02 16:28:53;;;;;;;62.67;8.88;;;;;;;29.83;55.65;99463.38;10456263;28;20029;-83
2023/08/02 16:33:54;;;;;;;30.75;5.95;;;;;;;29.62;57.28;99468.63;10455269;28;20074;-83
2023/08/02 16:38:54;;;;;;;21.02;5.40;;;;;;;28.98;57.13;99382.16;10454674;28;20139;-82
2023/08/02 16:43:55;;;;;;;31.15;5.75;;;;;;;29.35;57.60;99460.25;10453910;28;20044;-81
2023/08/02 16:48:56;;;;;;;20.35;4.78;;;;;;;29.65;57.58;99531.75;10414477;28;20156;-79
2023/08/02 16:53:57;;;;;;;15.93;5.05;;;;;;;29.23;58.18;99522.94;10431476;28;20049;-78
2023/08/02 16:58:58;;;;;;;18.90;4.40;;;;;;;28.94;59.80;99509.69;10442302;28;20416;-78
2023/08/02 17:03:59;;;;;;;13.00;4.70;;;;;;;29.22;59.49;99569.75;10454077;28;20040;-78
2023/08/02 17:09:00;;;;;;;20.00;4.93;;;;;;;28.82;59.68;99520.38;10437059;28;20508;-78
2023/08/02 17:14:03;;;;;;;18.80;4.97;;;;;;;28.94;59.97;99577.22;10421316;28;20048;-79
2023/08/02 17:19:04;;;;;;;12.00;4.68;;;;;;;29.05;59.50;99597.78;10424118;28;20612;-78
2023/08/02 17:24:05;;;;;;;12.50;4.25;;;;;;;28.96;58.66;99592.22;10412081;28;20046;-78
2023/08/02 17:29:06;;;;;;;15.35;4.43;;;;;;;29.07;59.58;99622.88;10432221;28;20048;-80
2023/08/02 17:34:07;;;;;;;8.80;4.10;;;;;;;28.71;59.76;99581.84;10429812;28;20049;-80
2023/08/02 17:39:08;;;;;;;9.50;4.30;;;;;;;28.70;60.00;99608.38;10414690;28;20045;-82
2023/08/02 17:44:09;;;;;;;12.98;4.40;;;;;;;28.65;60.05;99633.06;10420666;28;20501;-81
2023/08/02 17:49:09;;;;;;;12.60;4.80;;;;;;;28.43;59.80;99611.94;10413957;28;20037;-81
2023/08/02 17:54:10;;;;;;;18.90;9.00;;;;;;;28.49;60.40;99650.91;10431990;28;20041;-81
2023/08/02 17:59:12;;;;;;;17.67;7.00;;;;;;;28.33;60.88;99637.53;10433699;28;20037;-80
2023/08/02 18:04:16;;;;;;;13.77;4.60;;;;;;;28.20;60.64;99611.81;10438559;28;20124;-78
2023/08/02 18:09:17;;;;;;;10.73;3.88;;;;;;;28.47;60.81;99637.53;10419065;28;20495;-79
2023/08/02 18:14:19;;;;;;;12.90;4.25;;;;;;;28.48;60.40;99647.38;10431738;28;20099;-79
2023/08/02 18:19:19;;;;;;;9.97;4.27;;;;;;;28.61;61.11;99673.84;10420979;28;20124;-80
2023/08/02 18:24:21;;;;;;;11.50;4.18;;;;;;;28.36;60.62;99649.72;10432304;28;20128;-81
2023/08/02 18:29:21;;;;;;;7.95;4.25;;;;;;;28.29;60.67;99635.69;10444620;28;20049;-81
2023/08/02 18:34:22;;;;;;;10.25;6.47;;;;;;;28.51;60.68;99654.13;10429709;28;20041;-79
2023/08/02 18:39:23;;;;;;;14.45;5.43;;;;;;;28.17;61.46;99628.78;10427956;28;20098;-82
2023/08/02 18:44:24;;;;;;;21.25;5.55;;;;;;;27.73;62.92;99585.63;10419975;28;20037;-81
2023/08/02 18:49:24;;;;;;;8.27;4.22;;;;;;;27.75;62.86;99600.59;10424197;28;20057;-81
2023/08/02 18:54:25;;;;;;;11.60;4.80;;;;;;;27.90;63.70;99710.66;10428722;28;20120;-81
2023/08/02 18:59:26;;;;;;;7.00;3.95;;;;;;;27.73;60.92;99686.59;10417870;28;20120;-80
2023/08/02 19:04:28;;;;;;;6.25;3.60;;;;;;;27.96;58.17;99725.84;10418086;28;20057;-81
2023/08/02 19:09:30;;;;;;;8.50;4.13;;;;;;;28.03;57.22;99741.81;10417048;28;20504;-78
2023/08/02 19:14:33;;;;;;;11.07;3.80;;;;;;;27.99;56.20;99733.44;10417446;28;20057;-79
2023/08/02 19:19:34;;;;;;;13.70;3.78;;;;;;;28.13;54.78;99734.28;10416902;28;20131;-80
2023/08/02 19:24:35;;;;;;;7.20;3.50;;;;;;;27.86;53.57;99687.81;10416877;28;20123;-80
2023/08/02 19:29:38;;;;;;;11.73;3.40;;;;;;;28.01;53.57;99738.59;10417113;28;20045;-82
2023/08/02 19:34:39;;;;;;;12.02;3.20;;;;;;;27.51;54.41;99668.94;10416549;28;20124;-79
2023/08/02 19:39:40;;;;;;;11.32;3.42;;;;;;;27.67;55.31;99732.28;10415698;28;20116;-79
2023/08/02 19:44:47;;;;;;;11.07;2.70;;;;;;;27.66;56.67;99768.84;10414817;28;20071;-78
2023/08/02 19:49:48;;;;;;;12.45;2.72;;;;;;;27.04;58.40;99727.13;10416182;28;20063;-82
2023/08/02 19:54:49;;;;;;;8.82;2.95;;;;;;;27.01;60.27;99776.78;10416198;28;20050;-79
2023/08/02 19:59:49;;;;;;;10.63;2.80;;;;;;;25.79;62.57;99650.81;10414799;28;20037;-79
2023/08/02 20:04:51;;;;;;;5.68;3.00;;;;;;;25.93;63.85;99750.56;10416223;28;20041;-80
2023/08/02 20:09:52;;;;;;;9.27;3.45;;;;;;;25.93;65.46;99813.16;10415188;28;20061;-80
2023/08/02 20:14:54;;;;;;;7.72;4.18;;;;;;;25.78;66.91;99821.38;10414841;28;20080;-81
2023/08/02 20:19:54;;;;;;;7.18;3.92;;;;;;;25.11;67.94;99722.22;10413680;28;20501;-84
2023/08/02 20:24:55;;;;;;;12.00;4.53;;;;;;;25.18;68.88;99741.78;10414028;28;20045;-80
2023/08/02 20:29:56;;;;;;;11.38;4.00;;;;;;;25.44;69.89;99815.88;10413849;28;20041;-82
2023/08/02 20:34:57;;;;;;;7.65;4.57;;;;;;;25.06;70.88;99780.91;10413523;28;20107;-79
2023/08/02 20:39:57;;;;;;;13.20;4.95;;;;;;;25.10;72.29;99799.38;10414105;28;20033;-80
2023/08/02 20:44:59;;;;;;;8.32;4.28;;;;;;;25.08;71.91;99802.41;10412464;28;20160;-80
2023/08/02 20:50:00;;;;;;;7.40;3.80;;;;;;;24.57;71.81;99726.50;10414339;28;20128;-79
2023/08/02 20:55:01;;;;;;;5.45;3.22;;;;;;;25.04;71.09;99788.56;10414103;28;20041;-81
2023/08/02 21:00:08;;;;;;;6.90;3.17;;;;;;;25.11;71.47;99765.69;10413228;28;20499;-80
2023/08/02 21:05:09;;;;;;;5.80;2.75;;;;;;;25.12;70.18;99753.72;10412841;28;20056;-79
2023/08/02 21:10:10;;;;;;;6.60;2.95;;;;;;;24.75;69.58;99676.19;10413545;28;20057;-79
2023/08/02 21:15:11;;;;;;;4.35;2.72;;;;;;;24.82;69.05;99685.66;10413117;28;20064;-80
2023/08/02 21:20:34;;;;;;;5.40;2.78;;;;;;;25.30;69.12;99728.66;10413025;28;20041;-79
2023/08/02 21:25:38;;;;;;;3.92;2.58;;;;;;;25.34;68.62;99732.47;10412974;28;20516;-79
2023/08/02 21:30:41;;;;;;;5.30;3.00;;;;;;;24.97;67.78;99654.88;10412820;28;20092;-79
2023/08/02 21:35:56;;;;;;;5.25;2.67;;;;;;;25.21;68.84;99679.50;10421180;28;20041;-79
2023/08/02 21:40:59;;;;;;;6.57;2.65;;;;;;;24.89;68.72;99643.78;10420438;28;20124;-78
2023/08/02 21:46:06;;;;;;;6.20;2.80;;;;;;;25.05;68.05;99669.78;10421239;28;20095;-79
2023/08/02 21:51:07;;;;;;;4.20;2.78;;;;;;;24.85;68.31;99667.19;10420818;28;20087;-79
2023/08/02 21:56:09;;;;;;;4.43;2.78;;;;;;;24.90;68.98;99692.41;10419735;28;20048;-79
2023/08/02 22:01:14;;;;;;;4.47;2.65;;;;;;;24.73;69.59;99678.34;10419419;28;20048;-79
2023/08/02 22:06:22;;;;;;;5.90;3.17;;;;;;;24.26;71.13;99601.69;10419713;28;20412;-79
2023/08/02 22:11:23;;;;;;;4.35;2.90;;;;;;;24.65;70.10;99659.91;10419292;28;20064;-79
2023/08/02 22:16:24;;;;;;;7.57;3.15;;;;;;;24.49;70.17;99643.69;10418662;28;20058;-79
2023/08/02 22:21:25;;;;;;;4.90;2.85;;;;;;;24.02;70.38;99582.47;10418620;28;20095;-79
2023/08/02 22:26:26;;;;;;;4.43;3.08;;;;;;;23.92;71.16;99577.06;10419212;28;20080;-77
2023/08/02 22:31:26;;;;;;;4.75;3.13;;;;;;;23.69;71.37;99546.75;10432101;28;20489;-78
2023/08/02 22:36:27;;;;;;;6.07;2.88;;;;;;;24.22;71.80;99632.34;10460015;28;20066;-79
2023/08/02 22:41:28;;;;;;;5.07;3.15;;;;;;;23.98;72.30;99599.56;10459521;28;20051;-78
2023/08/02 22:46:30;;;;;;;10.18;3.30;;;;;;;24.22;73.60;99629.63;10459378;28;20565;-78
2023/08/02 22:51:31;;;;;;;7.80;3.30;;;;;;;23.90;73.04;99601.78;10459238;28;20102;-81
2023/08/02 22:56:32;;;;;;;4.72;3.30;;;;;;;22.97;73.81;99489.06;10458658;28;20041;-80
2023/08/02 23:01:33;;;;;;;5.75;3.50;;;;;;;23.64;74.64;99600.13;10458780;28;20076;-79
2023/08/02 23:06:34;;;;;;;6.60;3.53;;;;;;;23.74;74.69;99624.56;10458287;28;20524;-79
2023/08/02 23:11:40;;;;;;;6.10;3.58;;;;;;;23.62;75.96;99627.50;10458807;28;20061;-79
2023/08/02 23:16:41;;;;;;;6.40;3.25;;;;;;;23.64;75.00;99622.63;10457955;28;20071;-78
2023/08/02 23:21:42;;;;;;;7.82;4.32;;;;;;;23.60;75.88;99634.28;10457941;28;20033;-79
2023/08/02 23:26:43;;;;;;;8.55;3.83;;;;;;;23.41;76.43;99612.34;10457915;28;20048;-79
2023/08/02 23:31:44;;;;;;;15.68;4.95;;;;;;;22.81;76.74;99544.25;10457341;28;20068;-79
2023/08/02 23:36:44;;;;;;;5.85;3.60;;;;;;;23.20;77.02;99620.44;10457132;28;20048;-79
2023/08/02 23:41:45;;;;;;;6.30;3.95;;;;;;;23.11;77.59;99613.94;10456933;28;20550;-79
2023/08/02 23:46:46;;;;;;;6.20;4.10;;;;;;;23.01;78.24;99603.91;10457527;28;20147;-78
2023/08/02 23:51:47;;;;;;;10.80;4.00;;;;;;;23.03;79.04;99617.16;10456922;28;20480;-79
2023/08/02 23:56:47;;;;;;;13.70;4.10;;;;;;;22.95;79.31;99606.88;10455472;28;20136;-79
